createdAt,value
2022-08-21T00:01:40.775Z,17.70
2022-08-21T00:04:09.934Z,17.80
2022-08-21T00:06:38.583Z,17.89
2022-08-21T00:09:09.662Z,17.90
2022-08-21T00:11:39.292Z,17.91
2022-08-21T00:14:10.237Z,17.90
2022-08-21T00:16:38.337Z,17.94
2022-08-21T00:19:08.647Z,17.92
2022-08-21T00:21:37.048Z,17.99
2022-08-21T00:24:06.212Z,17.90
2022-08-21T00:26:34.648Z,17.95
2022-08-21T00:29:04.801Z,17.75
2022-08-21T00:31:32.094Z,17.55
2022-08-21T00:34:01.026Z,17.36
2022-08-21T00:36:29.937Z,16.98
2022-08-21T00:38:57.462Z,17.07
2022-08-21T00:41:37.102Z,17.15
2022-08-21T00:44:08.835Z,17.25
2022-08-21T00:46:37.256Z,17.39
2022-08-21T00:49:05.524Z,17.42
2022-08-21T00:51:44.505Z,17.48
2022-08-21T00:54:18.183Z,17.49
2022-08-21T00:56:48.995Z,17.57
2022-08-21T00:59:19.080Z,17.19
2022-08-21T01:01:46.588Z,16.48
2022-08-21T01:04:14.674Z,16.19
2022-08-21T01:06:43.539Z,16.15
2022-08-21T01:09:10.799Z,16.38
2022-08-21T01:11:38.181Z,16.31
2022-08-21T01:14:05.058Z,16.16
2022-08-21T01:16:33.800Z,16.11
2022-08-21T01:19:00.679Z,16.35
2022-08-21T01:21:28.900Z,16.38
2022-08-21T01:23:58.147Z,16.51
2022-08-21T01:26:34.591Z,16.50
2022-08-21T01:29:15.794Z,16.39
2022-08-21T01:31:43.515Z,16.58
2022-08-21T01:34:11.660Z,16.38
2022-08-21T01:36:40.315Z,16.22
2022-08-21T01:39:07.325Z,16.25
2022-08-21T01:41:34.442Z,16.45
2022-08-21T01:44:01.503Z,16.38
2022-08-21T01:46:28.723Z,16.45
2022-08-21T01:48:55.645Z,16.43
2022-08-21T01:51:22.564Z,16.44
2022-08-21T01:53:50.946Z,16.42
2022-08-21T01:56:18.845Z,16.48
2022-08-21T01:58:48.711Z,16.06
2022-08-21T02:01:16.007Z,15.97
2022-08-21T02:03:43.273Z,15.95
2022-08-21T02:06:16.294Z,15.88
2022-08-21T02:08:43.121Z,15.98
2022-08-21T02:11:11.354Z,15.98
2022-08-21T02:13:38.214Z,16.00
2022-08-21T02:16:06.074Z,15.63
2022-08-21T02:18:32.923Z,15.45
2022-08-21T02:20:59.860Z,15.48
2022-08-21T02:23:27.592Z,15.63
2022-08-21T02:25:54.966Z,15.80
2022-08-21T02:28:23.351Z,15.98
2022-08-21T02:30:51.127Z,15.95
2022-08-21T02:33:20.159Z,15.79
2022-08-21T02:35:50.291Z,15.69
2022-08-21T02:38:22.003Z,15.75
2022-08-21T02:40:51.336Z,15.66
2022-08-21T02:43:20.025Z,15.67
2022-08-21T02:45:50.289Z,15.75
2022-08-21T02:48:21.637Z,15.83
2022-08-21T02:50:56.021Z,15.70
2022-08-21T02:53:24.226Z,15.40
2022-08-21T02:55:53.416Z,15.31
2022-08-21T02:58:25.866Z,15.05
2022-08-21T03:00:54.441Z,15.17
2022-08-21T03:03:21.874Z,15.13
2022-08-21T03:05:49.882Z,15.08
2022-08-21T03:08:18.363Z,15.20
2022-08-21T03:10:50.231Z,15.33
2022-08-21T03:13:19.438Z,15.49
2022-08-21T03:15:47.040Z,15.57
2022-08-21T03:18:18.790Z,15.64
2022-08-21T03:20:46.551Z,15.59
2022-08-21T03:23:18.449Z,15.62
2022-08-21T03:25:47.653Z,15.65
2022-08-21T03:28:19.236Z,15.71
2022-08-21T03:30:49.507Z,15.55
2022-08-21T03:33:20.770Z,14.95
2022-08-21T03:35:59.148Z,15.05
2022-08-21T03:38:28.357Z,14.99
2022-08-21T03:40:55.430Z,14.82
2022-08-21T03:43:22.674Z,14.78
2022-08-21T03:45:49.915Z,14.66
2022-08-21T03:48:21.848Z,14.62
2022-08-21T03:50:49.205Z,14.49
2022-08-21T03:53:18.090Z,14.55
2022-08-21T03:55:47.867Z,14.67
2022-08-21T03:58:16.767Z,14.81
2022-08-21T04:00:46.095Z,14.83
2022-08-21T04:03:13.133Z,14.77
2022-08-21T04:05:41.575Z,14.58
2022-08-21T04:08:08.561Z,14.71
2022-08-21T04:10:38.945Z,14.56
2022-08-21T04:13:09.085Z,14.67
2022-08-21T04:15:36.724Z,14.77
2022-08-21T04:18:06.164Z,14.79
2022-08-21T04:20:35.860Z,14.98
2022-08-21T04:23:04.926Z,15.09
2022-08-21T04:25:32.047Z,15.12
2022-08-21T04:27:59.381Z,15.11
2022-08-21T04:30:28.760Z,15.12
2022-08-21T04:32:59.214Z,15.07
2022-08-21T04:35:29.188Z,15.03
2022-08-21T04:37:56.676Z,15.24
2022-08-21T04:40:28.609Z,15.33
2022-08-21T04:42:59.026Z,15.42
2022-08-21T04:45:29.455Z,15.27
2022-08-21T04:48:00.315Z,15.51
2022-08-21T04:50:37.382Z,15.94
2022-08-21T04:53:06.052Z,16.36
2022-08-21T04:55:34.786Z,16.79
2022-08-21T04:58:02.416Z,17.26
2022-08-21T05:00:29.478Z,17.74
2022-08-21T05:02:58.216Z,18.13
2022-08-21T05:05:26.574Z,18.52
2022-08-21T05:07:54.649Z,18.97
2022-08-21T05:10:21.903Z,19.50
2022-08-21T05:12:50.515Z,19.95
2022-08-21T05:15:17.430Z,19.63
2022-08-21T05:17:44.336Z,19.83
2022-08-21T05:20:20.895Z,20.46
2022-08-21T05:22:48.041Z,20.88
2022-08-21T05:25:14.942Z,21.09
2022-08-21T05:27:43.749Z,21.30
2022-08-21T05:30:12.877Z,20.94
2022-08-21T05:32:40.132Z,21.75
2022-08-21T05:35:09.127Z,22.30
2022-08-21T05:37:36.448Z,22.25
2022-08-21T05:40:22.633Z,22.71
2022-08-21T05:42:54.422Z,23.23
2022-08-21T05:45:42.707Z,23.87
2022-08-21T05:48:13.912Z,24.59
2022-08-21T05:50:41.717Z,23.60
2022-08-21T05:53:10.404Z,24.40
2022-08-21T05:55:44.212Z,25.26
2022-08-21T05:58:13.274Z,25.86
2022-08-21T06:00:41.551Z,25.82
2022-08-21T06:03:12.927Z,26.67
2022-08-21T06:05:40.141Z,26.86
2022-08-21T06:08:06.916Z,24.32
2022-08-21T06:10:34.012Z,25.49
2022-08-21T06:13:01.132Z,26.67
2022-08-21T06:15:28.551Z,27.28
2022-08-21T06:17:56.834Z,28.29
2022-08-21T06:20:24.209Z,28.34
2022-08-21T06:22:51.352Z,26.37
2022-08-21T06:25:18.590Z,24.11
2022-08-21T06:27:45.949Z,23.46
2022-08-21T06:30:13.708Z,24.15
2022-08-21T06:32:40.980Z,22.85
2022-08-21T06:35:10.935Z,22.43
2022-08-21T06:37:38.334Z,23.19
2022-08-21T06:40:07.078Z,24.44
2022-08-21T06:42:41.541Z,23.48
2022-08-21T06:45:10.470Z,25.68
2022-08-21T06:47:37.373Z,25.26
2022-08-21T06:50:06.672Z,25.31
2022-08-21T06:52:35.343Z,27.21
2022-08-21T06:55:02.207Z,28.41
2022-08-21T06:57:29.140Z,29.67
2022-08-21T06:59:56.059Z,28.97
2022-08-21T07:02:23.158Z,29.23
2022-08-21T07:04:50.146Z,30.62
2022-08-21T07:07:17.028Z,30.87
2022-08-21T07:09:45.418Z,31.66
2022-08-21T07:12:13.295Z,32.68
2022-08-21T07:14:41.641Z,32.95
2022-08-21T07:17:08.767Z,31.68
2022-08-21T07:19:36.046Z,31.02
2022-08-21T07:22:03.636Z,31.95
2022-08-21T07:24:30.499Z,31.64
2022-08-21T07:26:58.682Z,32.53
2022-08-21T07:29:25.948Z,33.24
2022-08-21T07:31:52.816Z,33.18
2022-08-21T07:34:19.711Z,33.52
2022-08-21T07:36:46.730Z,33.79
2022-08-21T07:39:13.583Z,33.50
2022-08-21T07:41:40.511Z,33.71
2022-08-21T07:44:08.749Z,34.26
2022-08-21T07:46:39.455Z,34.27
2022-08-21T07:49:06.364Z,34.24
2022-08-21T07:51:34.355Z,34.54
2022-08-21T07:54:02.351Z,34.72
2022-08-21T07:56:32.203Z,34.54
2022-08-21T07:58:59.125Z,31.58
2022-08-21T08:01:27.549Z,30.26
2022-08-21T08:03:54.721Z,29.97
2022-08-21T08:06:21.719Z,28.96
2022-08-21T08:08:48.568Z,29.62
2022-08-21T08:11:15.906Z,30.61
2022-08-21T08:13:45.899Z,31.88
2022-08-21T08:16:13.805Z,33.19
2022-08-21T08:18:43.005Z,33.22
2022-08-21T08:21:11.596Z,31.84
2022-08-21T08:23:38.606Z,30.45
2022-08-21T08:26:05.671Z,30.18
2022-08-21T08:28:34.045Z,30.23
2022-08-21T08:31:01.732Z,29.59
2022-08-21T08:33:29.202Z,29.39
2022-08-21T08:35:57.784Z,29.03
2022-08-21T08:38:26.438Z,29.62
2022-08-21T08:41:04.894Z,30.01
2022-08-21T08:43:35.150Z,29.52
2022-08-21T08:46:11.119Z,28.58
2022-08-21T08:48:53.101Z,28.28
2022-08-21T08:51:34.712Z,27.86
2022-08-21T08:54:08.878Z,28.55
2022-08-21T08:56:36.949Z,27.66
2022-08-21T08:59:14.450Z,27.65
2022-08-21T09:01:43.228Z,27.94
2022-08-21T09:04:12.173Z,27.38
2022-08-21T09:06:59.195Z,27.13
2022-08-21T09:09:49.258Z,26.87
2022-08-21T09:12:31.670Z,27.07
2022-08-21T09:15:10.443Z,27.51
2022-08-21T09:18:16.209Z,27.44
2022-08-21T09:21:00.743Z,27.73
2022-08-21T09:23:47.251Z,28.22
2022-08-21T09:26:17.865Z,28.10
2022-08-21T09:28:45.801Z,28.15
2022-08-21T09:31:28.784Z,28.16
2022-08-21T09:34:01.089Z,28.11
2022-08-21T09:36:39.535Z,28.91
2022-08-21T09:39:11.139Z,28.83
2022-08-21T09:41:39.968Z,28.76
2022-08-21T09:44:09.570Z,28.27
2022-08-21T09:46:36.546Z,28.42
2022-08-21T09:49:06.867Z,28.87
2022-08-21T09:51:53.805Z,29.30
2022-08-21T09:54:31.979Z,30.04
2022-08-21T09:57:06.121Z,30.77
2022-08-21T09:59:37.092Z,30.64
2022-08-21T10:02:29.190Z,30.97
2022-08-21T10:05:07.071Z,30.69
2022-08-21T10:07:39.286Z,30.34
2022-08-21T10:10:18.270Z,29.02
2022-08-21T10:12:59.288Z,28.10
2022-08-21T10:15:42.391Z,28.04
2022-08-21T10:18:22.362Z,27.54
2022-08-21T10:21:03.400Z,28.10
2022-08-21T10:23:51.890Z,29.56
2022-08-21T10:26:38.746Z,29.70
2022-08-21T10:29:23.370Z,29.71
2022-08-21T10:32:03.718Z,30.88
2022-08-21T10:34:51.142Z,31.79
2022-08-21T10:37:37.696Z,31.74
2022-08-21T10:40:21.686Z,30.47
2022-08-21T10:43:09.412Z,29.84
2022-08-21T10:45:58.090Z,29.29
2022-08-21T10:48:35.192Z,29.37
2022-08-21T10:51:14.950Z,30.35
2022-08-21T10:54:05.734Z,30.90
2022-08-21T10:56:37.553Z,30.18
2022-08-21T10:59:32.418Z,30.88
2022-08-21T11:02:17.863Z,32.13
2022-08-21T11:04:57.196Z,32.64
2022-08-21T11:07:34.275Z,33.53
2022-08-21T11:10:11.775Z,32.96
2022-08-21T11:12:45.061Z,33.12
2022-08-21T11:15:34.363Z,32.99
2022-08-21T11:18:24.952Z,32.52
2022-08-21T11:21:05.418Z,33.69
2022-08-21T11:23:44.456Z,31.48
2022-08-21T11:26:20.105Z,29.86
2022-08-21T11:28:59.814Z,30.08
2022-08-21T11:31:52.573Z,29.56
2022-08-21T11:34:40.770Z,29.85
2022-08-21T11:37:30.413Z,30.39
2022-08-21T11:40:12.552Z,31.86
2022-08-21T11:42:51.154Z,33.20
2022-08-21T11:45:33.618Z,33.36
2022-08-21T11:48:17.201Z,33.63
2022-08-21T11:50:47.573Z,32.54
2022-08-21T11:53:27.299Z,31.91
2022-08-21T11:56:00.987Z,30.53
2022-08-21T11:58:36.572Z,29.86
2022-08-21T12:01:09.524Z,29.97
2022-08-21T12:03:44.125Z,30.13
2022-08-21T12:06:24.144Z,30.22
2022-08-21T12:09:01.713Z,30.18
2022-08-21T12:11:30.968Z,30.04
2022-08-21T12:14:12.447Z,29.48
2022-08-21T12:16:42.975Z,29.04
2022-08-21T12:19:14.922Z,28.50
2022-08-21T12:21:53.455Z,28.68
2022-08-21T12:24:36.953Z,27.40
2022-08-21T12:27:22.257Z,27.17
2022-08-21T12:29:52.848Z,27.01
2022-08-21T12:32:29.995Z,26.99
2022-08-21T12:35:07.959Z,26.98
2022-08-21T12:37:51.016Z,27.32
2022-08-21T12:40:24.825Z,27.27
2022-08-21T12:42:59.245Z,27.03
2022-08-21T12:45:32.326Z,27.56
2022-08-21T12:48:07.397Z,27.97
2022-08-21T12:50:41.988Z,28.27
2022-08-21T12:53:25.832Z,28.47
2022-08-21T12:55:53.733Z,27.39
2022-08-21T12:58:23.487Z,27.02
2022-08-21T13:00:55.609Z,26.87
2022-08-21T13:03:24.216Z,27.07
2022-08-21T13:05:53.431Z,27.46
2022-08-21T13:08:23.403Z,27.83
2022-08-21T13:11:00.564Z,28.18
2022-08-21T13:13:44.658Z,28.44
2022-08-21T13:16:25.880Z,28.64
2022-08-21T13:18:58.048Z,28.37
2022-08-21T13:21:33.256Z,28.56
2022-08-21T13:24:41.323Z,28.77
2022-08-21T13:27:22.014Z,28.81
2022-08-21T13:29:53.781Z,28.85
2022-08-21T13:32:29.141Z,28.60
2022-08-21T13:34:56.149Z,28.32
2022-08-21T13:37:27.602Z,28.53
2022-08-21T13:39:54.682Z,28.69
2022-08-21T13:42:29.943Z,28.40
2022-08-21T13:44:57.042Z,27.88
2022-08-21T13:47:24.008Z,28.04
2022-08-21T13:49:59.067Z,28.01
2022-08-21T13:52:28.117Z,27.57
2022-08-21T13:54:58.411Z,27.67
2022-08-21T13:57:30.203Z,27.75
2022-08-21T14:00:15.667Z,28.08
2022-08-21T14:02:48.598Z,28.17
2022-08-21T14:05:25.873Z,28.22
2022-08-21T14:08:05.788Z,27.75
2022-08-21T14:10:42.062Z,27.80
2022-08-21T14:13:34.754Z,27.94
2022-08-21T14:16:17.008Z,28.09
2022-08-21T14:18:55.064Z,28.23
2022-08-21T14:21:31.853Z,28.29
2022-08-21T14:24:09.566Z,28.51
2022-08-21T14:26:46.570Z,28.53
2022-08-21T14:29:19.542Z,28.53
2022-08-21T14:31:53.601Z,28.51
2022-08-21T14:34:22.274Z,28.42
2022-08-21T14:36:50.880Z,28.47
2022-08-21T14:39:18.515Z,28.65
2022-08-21T14:41:46.734Z,28.63
2022-08-21T14:44:16.628Z,28.53
2022-08-21T14:46:54.101Z,28.55
2022-08-21T14:49:26.545Z,28.40
2022-08-21T14:51:54.163Z,28.38
2022-08-21T14:54:22.488Z,28.54
2022-08-21T14:56:58.646Z,28.64
2022-08-21T14:59:26.820Z,28.66
2022-08-21T15:01:54.255Z,28.16
2022-08-21T15:04:24.577Z,28.06
2022-08-21T15:06:51.730Z,28.21
2022-08-21T15:09:18.600Z,28.39
2022-08-21T15:11:45.494Z,28.55
2022-08-21T15:14:21.637Z,28.55
2022-08-21T15:16:51.747Z,28.46
2022-08-21T15:19:19.535Z,28.41
2022-08-21T15:21:46.438Z,28.43
2022-08-21T15:24:13.435Z,28.37
2022-08-21T15:26:40.500Z,27.86
2022-08-21T15:29:09.307Z,27.61
2022-08-21T15:31:53.009Z,27.48
2022-08-21T15:34:20.922Z,27.52
2022-08-21T15:36:51.867Z,27.73
2022-08-21T15:39:24.791Z,27.87
2022-08-21T15:41:51.751Z,28.04
2022-08-21T15:44:19.612Z,28.07
2022-08-21T15:46:46.539Z,28.14
2022-08-21T15:49:15.158Z,28.19
2022-08-21T15:51:43.681Z,28.26
2022-08-21T15:54:11.202Z,28.30
2022-08-21T15:56:41.512Z,28.30
2022-08-21T15:59:16.496Z,28.30
2022-08-21T16:01:44.759Z,28.33
2022-08-21T16:04:21.894Z,28.26
2022-08-21T16:06:54.190Z,28.16
2022-08-21T16:09:23.321Z,28.16
2022-08-21T16:11:51.200Z,28.06
2022-08-21T16:14:18.710Z,28.02
2022-08-21T16:16:48.435Z,27.99
2022-08-21T16:19:17.035Z,27.83
2022-08-21T16:21:43.875Z,27.69
2022-08-21T16:24:10.871Z,27.64
2022-08-21T16:26:37.867Z,27.70
2022-08-21T16:29:06.730Z,27.76
2022-08-21T16:31:35.043Z,27.59
2022-08-21T16:34:02.758Z,27.52
2022-08-21T16:36:31.411Z,27.47
2022-08-21T16:39:00.861Z,27.50
2022-08-21T16:41:35.789Z,27.59
2022-08-21T16:44:04.562Z,27.56
2022-08-21T16:46:36.398Z,27.58
2022-08-21T16:49:04.605Z,27.61
2022-08-21T16:51:32.786Z,27.65
2022-08-21T16:54:00.574Z,27.64
2022-08-21T16:56:27.950Z,27.60
2022-08-21T16:58:57.572Z,27.64
2022-08-21T17:01:30.114Z,27.61
2022-08-21T17:03:57.785Z,27.59
2022-08-21T17:06:29.068Z,27.59
2022-08-21T17:08:58.257Z,27.54
2022-08-21T17:11:36.960Z,27.49
2022-08-21T17:14:10.553Z,27.45
2022-08-21T17:16:39.628Z,27.39
2022-08-21T17:19:08.094Z,27.31
2022-08-21T17:21:36.054Z,27.34
2022-08-21T17:24:05.629Z,27.27
2022-08-21T17:26:33.212Z,27.19
2022-08-21T17:29:00.224Z,27.10
2022-08-21T17:31:28.320Z,27.04
2022-08-21T17:33:56.375Z,26.92
2022-08-21T17:36:27.817Z,26.82
2022-08-21T17:38:57.139Z,26.78
2022-08-21T17:41:26.405Z,26.70
2022-08-21T17:43:54.693Z,26.65
2022-08-21T17:46:26.728Z,26.58
2022-08-21T17:48:54.478Z,26.52
2022-08-21T17:51:21.759Z,26.43
2022-08-21T17:53:49.149Z,26.35
2022-08-21T17:56:18.728Z,26.24
2022-08-21T17:58:50.802Z,26.16
2022-08-21T18:01:19.563Z,26.07
2022-08-21T18:03:49.173Z,25.92
2022-08-21T18:06:18.156Z,25.88
2022-08-21T18:08:45.673Z,25.80
2022-08-21T18:11:18.035Z,25.73
2022-08-21T18:13:55.218Z,25.64
2022-08-21T18:16:23.318Z,25.54
2022-08-21T18:18:50.662Z,25.44
2022-08-21T18:21:17.587Z,25.38
2022-08-21T18:23:45.178Z,25.27
2022-08-21T18:26:16.583Z,25.21
2022-08-21T18:28:44.257Z,25.14
2022-08-21T18:31:13.655Z,24.94
2022-08-21T18:33:57.007Z,24.90
2022-08-21T18:36:27.204Z,24.79
2022-08-21T18:38:54.350Z,24.60
2022-08-21T18:41:22.517Z,24.60
2022-08-21T18:43:49.812Z,24.55
2022-08-21T18:46:19.076Z,24.44
2022-08-21T18:48:46.027Z,24.42
2022-08-21T18:51:13.279Z,24.35
2022-08-21T18:53:40.392Z,24.27
2022-08-21T18:56:08.229Z,24.17
2022-08-21T18:58:43.398Z,23.91
2022-08-21T19:01:10.642Z,23.85
2022-08-21T19:03:39.844Z,23.91
2022-08-21T19:08:55.644Z,23.86
2022-08-21T19:11:25.736Z,23.70
2022-08-21T19:13:54.223Z,23.75
2022-08-21T19:16:22.360Z,23.73
2022-08-21T19:18:51.193Z,23.72
2022-08-21T19:21:18.258Z,23.63
2022-08-21T19:23:45.337Z,23.62
2022-08-21T19:26:12.310Z,23.36
2022-08-21T19:28:44.771Z,23.18
2022-08-21T19:31:16.672Z,23.01
2022-08-21T19:33:57.711Z,22.91
2022-08-21T19:36:28.870Z,22.88
2022-08-21T19:38:56.080Z,22.89
2022-08-21T19:41:27.075Z,22.90
2022-08-21T19:43:58.857Z,22.92
2022-08-21T19:46:32.196Z,22.92
2022-08-21T19:49:02.701Z,22.78
2022-08-21T19:51:29.968Z,22.43
2022-08-21T19:53:57.500Z,21.87
2022-08-21T19:56:31.371Z,21.53
2022-08-21T19:58:59.381Z,21.30
2022-08-21T20:01:28.131Z,21.10
2022-08-21T20:03:57.216Z,21.06
2022-08-21T20:06:26.124Z,21.14
2022-08-21T20:08:55.057Z,21.21
2022-08-21T20:11:31.288Z,21.24
2022-08-21T20:16:52.461Z,21.38
2022-08-21T20:19:20.703Z,21.30
2022-08-21T20:21:49.437Z,21.23
2022-08-21T20:24:16.523Z,20.99
2022-08-21T20:26:49.144Z,20.85
2022-08-21T20:29:23.907Z,20.77
2022-08-21T20:31:51.553Z,20.63
2022-08-21T20:34:18.539Z,20.58
2022-08-21T20:36:45.783Z,20.56
2022-08-21T20:39:15.861Z,20.60
2022-08-21T20:41:44.154Z,20.68
2022-08-21T20:44:16.950Z,20.77
2022-08-21T20:46:44.157Z,20.86
2022-08-21T20:49:21.055Z,20.81
2022-08-21T20:51:52.535Z,20.57
2022-08-21T20:54:33.510Z,20.34
2022-08-21T21:00:03.450Z,20.43
2022-08-21T21:02:49.554Z,20.51
2022-08-21T21:05:22.104Z,20.60
2022-08-21T21:08:02.034Z,20.57
2022-08-21T21:10:38.410Z,20.53
2022-08-21T21:13:17.403Z,20.44
2022-08-21T21:15:47.695Z,20.33
2022-08-21T21:18:30.101Z,20.02
2022-08-21T21:21:06.315Z,19.78
2022-08-21T21:23:45.354Z,19.78
2022-08-21T21:26:29.122Z,19.87
2022-08-21T21:29:10.576Z,19.97
2022-08-21T21:31:38.432Z,20.02
2022-08-21T21:34:05.566Z,20.07
2022-08-21T21:36:51.489Z,20.16
2022-08-21T21:39:36.189Z,20.24
2022-08-21T21:42:32.838Z,20.27
2022-08-21T21:45:18.387Z,20.25
2022-08-21T21:48:04.449Z,20.23
2022-08-21T21:50:50.856Z,20.27
2022-08-21T21:53:41.175Z,20.27
2022-08-21T21:56:27.443Z,20.26
2022-08-21T21:59:19.754Z,20.15
2022-08-21T22:02:02.020Z,19.76
2022-08-21T22:04:51.324Z,19.56
2022-08-21T22:07:46.793Z,19.55
2022-08-21T22:10:30.693Z,19.60
2022-08-21T22:16:05.531Z,19.72
2022-08-21T22:18:45.085Z,19.77
2022-08-21T22:21:23.888Z,19.79
2022-08-21T22:24:01.875Z,19.59
2022-08-21T22:26:36.536Z,19.46
2022-08-21T22:29:09.876Z,19.40
2022-08-21T22:31:38.477Z,19.21
2022-08-21T22:34:17.768Z,19.00
2022-08-21T22:36:54.626Z,19.12
2022-08-21T22:39:33.092Z,19.05
2022-08-21T22:42:10.868Z,18.94
2022-08-21T22:44:51.101Z,18.94
2022-08-21T22:47:30.399Z,19.02
2022-08-21T22:50:04.364Z,19.08
2022-08-21T22:52:36.654Z,19.17
2022-08-21T22:55:24.629Z,19.12
2022-08-21T22:58:07.941Z,19.06
2022-08-21T23:00:51.328Z,19.03
2022-08-21T23:03:32.002Z,18.82
2022-08-21T23:06:03.142Z,18.79
2022-08-21T23:08:40.633Z,18.86
2022-08-21T23:11:17.726Z,18.89
2022-08-21T23:13:48.554Z,18.60
2022-08-21T23:16:47.220Z,18.53
2022-08-21T23:19:37.951Z,18.61
2022-08-21T23:22:33.577Z,18.66
2022-08-21T23:28:23.043Z,18.73
2022-08-21T23:31:05.453Z,18.75
2022-08-21T23:34:00.483Z,18.79
2022-08-21T23:36:53.801Z,18.75
2022-08-21T23:39:46.736Z,18.49
2022-08-21T23:42:46.483Z,18.20
2022-08-21T23:45:33.281Z,18.18
2022-08-21T23:48:19.745Z,17.87
2022-08-21T23:51:01.290Z,17.94
2022-08-21T23:53:50.631Z,17.79
2022-08-21T23:56:33.370Z,17.85
2022-08-21T23:59:18.482Z,17.95
